Time;durP1;ratioP1;P1;durP2;ratioP2;P2;SDS_P1;SDS_P2;PMS_P1;PMS_P2;Temp;Humidity;BMP_temperature;BMP_pressure;BME280_temperature;BME280_humidity;BME280_pressure;Samples;Min_cycle;Max_cycle;Signal;HPM_P1;HPM_P2
2022/09/07 00:00:38;;;;;;;6.35;4.88;;;;;;;;;;5005298;28;20274;-68
2022/09/07 00:03:03;;;;;;;8.18;4.97;;;;;;;;;;5019096;28;20182;-68
2022/09/07 00:05:29;;;;;;;8.93;4.90;;;;;;;;;;5009817;28;20174;-69
2022/09/07 00:07:55;;;;;;;7.10;4.63;;;;;;;;;;5008686;28;20710;-69
2022/09/07 00:10:22;;;;;;;4.95;3.55;;;;;;;;;;5019739;28;20260;-68
2022/09/07 00:12:47;;;;;;;9.70;4.82;;;;;;;;;;5028954;28;20305;-69
2022/09/07 00:15:12;;;;;;;7.22;3.83;;;;;;;;;;5012304;28;20198;-68
2022/09/07 00:17:38;;;;;;;9.50;4.22;;;;;;;;;;5017911;28;20221;-69
2022/09/07 00:20:04;;;;;;;6.47;3.60;;;;;;;;;;5001950;28;20262;-69
2022/09/07 00:22:29;;;;;;;5.47;3.35;;;;;;;;;;5001395;28;20191;-70
2022/09/07 00:24:55;;;;;;;4.95;3.75;;;;;;;;;;5013514;28;20185;-69
2022/09/07 00:27:20;;;;;;;3.80;3.40;;;;;;;;;;5024132;28;20198;-69
2022/09/07 00:29:45;;;;;;;6.53;2.95;;;;;;;;;;5029801;28;20876;-69
2022/09/07 00:32:10;;;;;;;4.88;2.40;;;;;;;;;;5028471;28;20247;-69
2022/09/07 00:34:35;;;;;;;6.43;2.95;;;;;;;;;;5027574;28;20193;-69
2022/09/07 00:37:01;;;;;;;3.40;1.95;;;;;;;;;;5022609;28;20612;-69
2022/09/07 00:39:26;;;;;;;3.97;2.70;;;;;;;;;;5027142;28;20265;-69
2022/09/07 00:41:51;;;;;;;3.63;2.83;;;;;;;;;;5028938;28;20270;-69
2022/09/07 00:44:55;;;;;;;4.43;2.38;;;;;;;;;;5030842;28;20186;-69
2022/09/07 00:47:33;;;;;;;4.25;2.97;;;;;;;;;;4969856;28;20627;-69
2022/09/07 00:50:01;;;;;;;8.20;3.22;;;;;;;;;;4969366;28;20246;-68
2022/09/07 00:52:28;;;;;;;4.28;3.15;;;;;;;;;;5003912;28;20182;-68
2022/09/07 00:54:57;;;;;;;6.05;3.75;;;;;;;;;;5023888;28;20179;-69
2022/09/07 00:57:22;;;;;;;5.40;3.10;;;;;;;;;;5023240;28;20401;-69
2022/09/07 00:59:49;;;;;;;5.97;3.45;;;;;;;;;;5027322;28;20616;-69
2022/09/07 01:02:16;;;;;;;5.45;3.80;;;;;;;;;;5027097;28;20181;-69
2022/09/07 01:04:41;;;;;;;5.72;3.20;;;;;;;;;;5033163;28;20232;-69
2022/09/07 01:07:07;;;;;;;6.65;3.85;;;;;;;;;;5032811;28;20284;-69
2022/09/07 01:09:32;;;;;;;5.20;3.10;;;;;;;;;;5030947;28;20183;-69
2022/09/07 01:11:59;;;;;;;6.47;3.13;;;;;;;;;;5038566;28;20170;-69
2022/09/07 01:14:33;;;;;;;5.93;3.40;;;;;;;;;;5012952;28;20210;-68
2022/09/07 01:17:07;;;;;;;7.60;3.90;;;;;;;;;;5031719;28;20336;-68
2022/09/07 01:19:51;;;;;;;5.72;4.47;;;;;;;;;;5031452;28;20173;-68
2022/09/07 01:22:19;;;;;;;6.18;3.35;;;;;;;;;;5040643;28;20187;-69
2022/09/07 01:25:05;;;;;;;4.93;3.08;;;;;;;;;;5037621;28;20273;-69
2022/09/07 01:27:30;;;;;;;3.17;2.70;;;;;;;;;;5031141;28;20201;-68
2022/09/07 01:30:03;;;;;;;4.97;3.20;;;;;;;;;;5025119;28;20187;-68
2022/09/07 01:32:28;;;;;;;4.03;2.78;;;;;;;;;;5023227;28;20425;-68
2022/09/07 01:34:53;;;;;;;4.07;2.53;;;;;;;;;;5023579;28;20201;-69
2022/09/07 01:37:28;;;;;;;4.65;2.80;;;;;;;;;;5007459;28;20473;-68
2022/09/07 01:40:01;;;;;;;3.38;2.92;;;;;;;;;;5027768;28;20181;-69
2022/09/07 01:42:30;;;;;;;6.65;2.50;;;;;;;;;;5030143;28;20212;-68
2022/09/07 01:44:56;;;;;;;3.67;2.17;;;;;;;;;;5029214;28;20177;-68
2022/09/07 01:47:22;;;;;;;3.67;2.80;;;;;;;;;;5029948;28;20213;-68
2022/09/07 01:49:50;;;;;;;4.43;2.33;;;;;;;;;;5033942;28;20187;-68
2022/09/07 01:52:33;;;;;;;3.97;2.75;;;;;;;;;;5025179;28;20449;-68
2022/09/07 01:55:05;;;;;;;4.80;3.08;;;;;;;;;;5024637;28;20209;-68
2022/09/07 01:57:33;;;;;;;4.15;2.20;;;;;;;;;;5004330;28;20285;-68
2022/09/07 02:00:09;;;;;;;3.47;2.28;;;;;;;;;;5032541;28;20193;-69
2022/09/07 02:02:53;;;;;;;4.65;2.95;;;;;;;;;;5030543;28;20182;-69
2022/09/07 02:05:20;;;;;;;4.47;2.10;;;;;;;;;;5024537;28;20183;-69
2022/09/07 02:07:56;;;;;;;2.90;2.40;;;;;;;;;;5020580;28;20224;-69
2022/09/07 02:10:32;;;;;;;2.40;1.90;;;;;;;;;;5028488;28;20264;-69
2022/09/07 02:13:00;;;;;;;3.45;2.05;;;;;;;;;;5030247;28;20177;-70
2022/09/07 02:15:27;;;;;;;3.63;2.28;;;;;;;;;;5031096;28;20178;-70
2022/09/07 02:17:56;;;;;;;3.15;2.30;;;;;;;;;;5030926;28;20216;-70
2022/09/07 02:20:25;;;;;;;6.45;2.40;;;;;;;;;;5028274;28;20182;-70
2022/09/07 02:22:53;;;;;;;4.20;2.47;;;;;;;;;;5029390;28;20175;-70
2022/09/07 02:25:22;;;;;;;3.97;2.10;;;;;;;;;;5029545;28;20190;-70
2022/09/07 02:27:50;;;;;;;2.50;2.13;;;;;;;;;;5021095;28;21699;-69
2022/09/07 02:30:16;;;;;;;2.72;1.92;;;;;;;;;;5028726;28;20190;-70
2022/09/07 02:32:41;;;;;;;3.17;1.77;;;;;;;;;;5029019;28;20178;-70
2022/09/07 02:35:07;;;;;;;1.88;1.77;;;;;;;;;;5026898;28;20196;-69
2022/09/07 02:37:32;;;;;;;1.85;1.50;;;;;;;;;;5029257;28;20209;-69
2022/09/07 02:39:59;;;;;;;2.15;1.73;;;;;;;;;;5026218;28;20244;-69
2022/09/07 02:42:24;;;;;;;5.38;1.80;;;;;;;;;;5028495;28;20175;-69
2022/09/07 02:44:49;;;;;;;2.13;1.52;;;;;;;;;;5029197;28;20174;-70
2022/09/07 02:47:30;;;;;;;4.50;1.48;;;;;;;;;;5024166;28;20227;-69
2022/09/07 02:50:11;;;;;;;2.25;2.05;;;;;;;;;;5028191;28;20635;-69
2022/09/07 02:52:42;;;;;;;1.35;1.25;;;;;;;;;;5028516;28;20255;-70
2022/09/07 02:55:14;;;;;;;3.33;1.55;;;;;;;;;;5029033;28;20182;-69
2022/09/07 02:57:58;;;;;;;2.42;2.22;;;;;;;;;;5028657;28;20206;-70
2022/09/07 03:00:25;;;;;;;1.52;1.30;;;;;;;;;;5010259;28;20577;-70
2022/09/07 03:02:53;;;;;;;2.42;1.48;;;;;;;;;;5026926;28;20178;-69
2022/09/07 03:05:20;;;;;;;2.53;1.80;;;;;;;;;;5028776;28;20178;-69
2022/09/07 03:07:50;;;;;;;1.55;1.42;;;;;;;;;;5028806;28;20244;-69
2022/09/07 03:10:16;;;;;;;2.38;2.00;;;;;;;;;;5031151;28;20170;-69
2022/09/07 03:12:43;;;;;;;2.03;1.67;;;;;;;;;;5029301;28;20511;-69
2022/09/07 03:15:09;;;;;;;2.53;2.20;;;;;;;;;;5020600;28;20269;-69
2022/09/07 03:17:35;;;;;;;2.00;1.70;;;;;;;;;;5023649;28;20242;-69
2022/09/07 03:20:00;;;;;;;2.42;1.58;;;;;;;;;;5024300;28;20224;-69
2022/09/07 03:22:25;;;;;;;1.70;1.60;;;;;;;;;;5021432;28;20282;-69
2022/09/07 03:24:50;;;;;;;2.63;2.25;;;;;;;;;;5023526;28;20209;-70
2022/09/07 03:27:16;;;;;;;2.03;1.83;;;;;;;;;;5027044;28;20214;-69
2022/09/07 03:29:41;;;;;;;2.65;2.05;;;;;;;;;;5028198;28;20418;-69
2022/09/07 03:32:06;;;;;;;2.80;1.60;;;;;;;;;;5028882;28;20177;-70
2022/09/07 03:34:32;;;;;;;1.90;1.67;;;;;;;;;;5029323;28;20174;-69
2022/09/07 03:36:57;;;;;;;3.40;2.25;;;;;;;;;;5027035;28;20660;-69
2022/09/07 03:39:23;;;;;;;5.25;2.00;;;;;;;;;;5011369;28;20395;-70
2022/09/07 03:41:49;;;;;;;4.72;1.80;;;;;;;;;;5027939;28;20182;-69
2022/09/07 03:44:14;;;;;;;2.28;1.80;;;;;;;;;;5027241;28;20178;-69
2022/09/07 03:46:39;;;;;;;2.13;1.65;;;;;;;;;;5029779;28;20198;-70
2022/09/07 03:49:05;;;;;;;2.40;1.70;;;;;;;;;;5028778;28;20181;-70
2022/09/07 03:51:30;;;;;;;2.17;1.83;;;;;;;;;;5029056;28;20209;-69
2022/09/07 03:53:56;;;;;;;1.95;1.73;;;;;;;;;;5009171;28;20420;-69
2022/09/07 03:56:22;;;;;;;1.83;1.63;;;;;;;;;;5032113;28;20527;-69
2022/09/07 03:58:48;;;;;;;2.30;2.10;;;;;;;;;;5027864;28;20205;-69
2022/09/07 04:01:14;;;;;;;2.50;2.00;;;;;;;;;;5024965;28;20221;-70
2022/09/07 04:03:40;;;;;;;2.72;1.90;;;;;;;;;;5028416;28;20197;-69
2022/09/07 04:06:05;;;;;;;3.70;2.10;;;;;;;;;;5017150;28;20194;-69
2022/09/07 04:08:32;;;;;;;2.47;1.77;;;;;;;;;;5008775;28;20221;-69
2022/09/07 04:10:58;;;;;;;2.10;1.90;;;;;;;;;;5028926;28;20616;-69
2022/09/07 04:13:24;;;;;;;2.38;1.75;;;;;;;;;;5027636;28;20623;-69
2022/09/07 04:15:50;;;;;;;3.20;1.77;;;;;;;;;;5029751;28;20190;-70
2022/09/07 04:18:15;;;;;;;3.00;2.00;;;;;;;;;;5032540;28;20213;-69
2022/09/07 04:20:40;;;;;;;3.08;1.80;;;;;;;;;;5027425;28;20236;-69
2022/09/07 04:23:05;;;;;;;3.10;1.92;;;;;;;;;;5029742;28;20167;-69
2022/09/07 04:25:30;;;;;;;4.57;2.10;;;;;;;;;;5033068;28;20178;-69
2022/09/07 04:27:56;;;;;;;2.30;1.95;;;;;;;;;;5030982;28;20324;-69
2022/09/07 04:30:21;;;;;;;5.22;2.42;;;;;;;;;;5031355;28;20240;-70
2022/09/07 04:32:46;;;;;;;2.38;2.00;;;;;;;;;;5031892;28;20209;-69
2022/09/07 04:35:12;;;;;;;4.47;2.60;;;;;;;;;;5032944;28;20263;-69
2022/09/07 04:37:37;;;;;;;2.58;2.22;;;;;;;;;;5031481;28;20216;-70
2022/09/07 04:40:02;;;;;;;4.70;3.25;;;;;;;;;;5031011;28;20182;-69
2022/09/07 04:42:28;;;;;;;3.08;2.78;;;;;;;;;;5030390;28;20182;-70
2022/09/07 04:44:54;;;;;;;4.70;3.53;;;;;;;;;;5032184;28;20228;-70
2022/09/07 04:47:19;;;;;;;3.60;3.20;;;;;;;;;;5031391;28;20193;-69
2022/09/07 04:49:44;;;;;;;3.90;2.78;;;;;;;;;;5033407;28;20166;-70
2022/09/07 04:52:09;;;;;;;4.85;3.55;;;;;;;;;;5030693;28;20174;-70
2022/09/07 04:54:34;;;;;;;4.60;3.40;;;;;;;;;;5014078;28;20189;-69
2022/09/07 04:57:00;;;;;;;4.20;3.75;;;;;;;;;;5030002;28;20757;-70
2022/09/07 04:59:25;;;;;;;4.75;4.18;;;;;;;;;;5030854;28;20181;-70
2022/09/07 05:01:50;;;;;;;4.88;4.00;;;;;;;;;;5023985;28;20217;-70
2022/09/07 05:04:15;;;;;;;5.40;4.72;;;;;;;;;;5031444;28;20209;-69
2022/09/07 05:09:09;;;;;;;4.75;4.05;;;;;;;;;;5013775;28;20214;-72
2022/09/07 05:11:34;;;;;;;6.45;4.18;;;;;;;;;;5011259;28;20232;-73
2022/09/07 05:14:00;;;;;;;5.10;4.13;;;;;;;;;;5012943;28;20171;-72
2022/09/07 05:16:25;;;;;;;5.53;4.53;;;;;;;;;;5012007;28;20625;-72
2022/09/07 05:18:51;;;;;;;5.72;4.40;;;;;;;;;;5010475;28;20233;-72
2022/09/07 05:21:18;;;;;;;5.28;3.63;;;;;;;;;;5011132;28;20648;-72
2022/09/07 05:23:43;;;;;;;4.75;4.10;;;;;;;;;;5005695;28;20664;-72
2022/09/07 05:26:09;;;;;;;5.25;3.88;;;;;;;;;;5011672;28;20175;-73
2022/09/07 05:28:34;;;;;;;5.18;4.68;;;;;;;;;;5000856;28;20214;-73
2022/09/07 05:31:16;;;;;;;6.35;5.68;;;;;;;;;;5010203;28;20629;-73
2022/09/07 05:33:45;;;;;;;7.25;5.97;;;;;;;;;;5004653;28;20179;-73
2022/09/07 05:36:10;;;;;;;8.98;5.60;;;;;;;;;;5008116;28;20190;-73
2022/09/07 05:38:36;;;;;;;9.35;7.53;;;;;;;;;;5010531;28;20212;-73
2022/09/07 05:41:14;;;;;;;10.15;7.88;;;;;;;;;;5010904;28;20195;-72
2022/09/07 05:43:40;;;;;;;11.90;7.90;;;;;;;;;;5010467;28;20183;-73
2022/09/07 05:46:06;;;;;;;11.23;7.80;;;;;;;;;;5009797;28;20705;-72
2022/09/07 05:48:31;;;;;;;10.15;8.10;;;;;;;;;;5008596;28;20252;-72
2022/09/07 05:50:56;;;;;;;13.40;8.52;;;;;;;;;;5010788;28;20679;-73
2022/09/07 05:53:21;;;;;;;12.80;8.50;;;;;;;;;;5012867;28;20652;-72
2022/09/07 05:55:49;;;;;;;12.00;8.35;;;;;;;;;;5010509;28;20217;-72
2022/09/07 05:58:14;;;;;;;11.10;7.85;;;;;;;;;;5007359;28;20203;-72
2022/09/07 06:00:39;;;;;;;12.00;8.43;;;;;;;;;;5003342;28;20190;-72
2022/09/07 06:03:05;;;;;;;10.40;7.20;;;;;;;;;;5004500;28;20180;-72
2022/09/07 06:05:30;;;;;;;11.27;8.38;;;;;;;;;;5007809;28;20544;-72
2022/09/07 06:07:55;;;;;;;8.97;7.30;;;;;;;;;;5012307;28;20210;-71
2022/09/07 06:10:20;;;;;;;11.43;7.32;;;;;;;;;;5011013;28;20704;-71
2022/09/07 06:12:45;;;;;;;11.52;8.38;;;;;;;;;;5012365;28;20175;-71
2022/09/07 06:15:11;;;;;;;8.10;7.25;;;;;;;;;;5011208;28;20719;-71
2022/09/07 06:17:36;;;;;;;8.80;6.60;;;;;;;;;;5012047;28;20272;-71
2022/09/07 06:20:02;;;;;;;9.23;8.23;;;;;;;;;;5010924;28;20174;-72
2022/09/07 06:22:27;;;;;;;10.65;7.32;;;;;;;;;;5009863;28;20214;-72
2022/09/07 06:24:52;;;;;;;9.43;7.82;;;;;;;;;;5012423;28;20650;-72
2022/09/07 06:27:18;;;;;;;16.08;9.20;;;;;;;;;;5010448;28;20233;-72
2022/09/07 06:29:43;;;;;;;11.73;7.28;;;;;;;;;;5012658;28;20189;-71
2022/09/07 06:32:08;;;;;;;11.32;9.20;;;;;;;;;;5012228;28;20218;-71
2022/09/07 06:34:33;;;;;;;9.93;8.03;;;;;;;;;;5012376;28;20568;-71
2022/09/07 06:36:58;;;;;;;11.40;7.57;;;;;;;;;;5011442;28;20562;-72
2022/09/07 06:39:23;;;;;;;8.27;7.45;;;;;;;;;;5010898;28;20765;-73
2022/09/07 06:41:49;;;;;;;9.70;8.37;;;;;;;;;;5012078;28;20175;-73
2022/09/07 06:44:14;;;;;;;8.52;6.93;;;;;;;;;;5010903;28;20432;-73
2022/09/07 06:46:39;;;;;;;9.17;8.20;;;;;;;;;;5012321;28;20557;-70
2022/09/07 06:49:04;;;;;;;10.87;8.50;;;;;;;;;;5012035;28;20396;-72
2022/09/07 06:51:30;;;;;;;11.80;9.48;;;;;;;;;;5011689;28;20781;-72
2022/09/07 06:53:56;;;;;;;11.15;9.55;;;;;;;;;;5006419;28;20171;-70
2022/09/07 06:56:22;;;;;;;13.48;9.15;;;;;;;;;;5012266;28;20182;-72
2022/09/07 06:58:51;;;;;;;18.17;10.63;;;;;;;;;;5011904;28;20256;-73
2022/09/07 07:01:19;;;;;;;13.23;10.50;;;;;;;;;;4999655;28;20172;-70
2022/09/07 07:03:44;;;;;;;16.65;11.52;;;;;;;;;;5010979;28;20191;-73
2022/09/07 07:06:10;;;;;;;14.80;12.05;;;;;;;;;;5007526;28;20171;-73
2022/09/07 07:08:35;;;;;;;14.65;11.68;;;;;;;;;;5009198;28;20767;-73
2022/09/07 07:11:11;;;;;;;15.20;10.98;;;;;;;;;;5012229;28;20171;-70
2022/09/07 07:13:37;;;;;;;12.70;10.73;;;;;;;;;;5000974;28;20237;-70
2022/09/07 07:16:06;;;;;;;14.32;9.77;;;;;;;;;;5005845;28;20673;-70
2022/09/07 07:18:31;;;;;;;10.85;9.65;;;;;;;;;;5010447;28;20207;-70
2022/09/07 07:20:56;;;;;;;10.68;9.20;;;;;;;;;;5001530;28;20183;-70
2022/09/07 07:23:22;;;;;;;10.75;9.65;;;;;;;;;;5009081;28;20179;-70
2022/09/07 07:25:47;;;;;;;9.63;8.40;;;;;;;;;;5010932;28;20636;-71
2022/09/07 07:28:12;;;;;;;10.30;8.80;;;;;;;;;;5010249;28;20227;-70
2022/09/07 07:30:38;;;;;;;10.52;9.32;;;;;;;;;;5006980;28;20431;-71
2022/09/07 07:33:06;;;;;;;9.63;8.63;;;;;;;;;;5010956;28;20187;-71
2022/09/07 07:35:33;;;;;;;12.30;9.95;;;;;;;;;;5009302;28;20690;-71
2022/09/07 07:37:58;;;;;;;9.90;8.05;;;;;;;;;;5010687;28;20210;-70
2022/09/07 07:40:24;;;;;;;9.38;8.43;;;;;;;;;;5009317;28;20774;-70
2022/09/07 07:42:49;;;;;;;10.32;9.15;;;;;;;;;;5010752;28;20269;-70
2022/09/07 07:45:15;;;;;;;12.00;10.33;;;;;;;;;;5009621;28;20269;-71
2022/09/07 07:47:40;;;;;;;10.93;9.82;;;;;;;;;;5009405;28;20451;-71
2022/09/07 07:50:06;;;;;;;10.85;9.80;;;;;;;;;;5008622;28;20206;-70
2022/09/07 07:52:32;;;;;;;11.80;9.32;;;;;;;;;;5001105;28;20195;-70
2022/09/07 07:54:57;;;;;;;11.88;10.60;;;;;;;;;;5007022;28;20550;-70
2022/09/07 07:57:22;;;;;;;11.77;10.27;;;;;;;;;;5010521;28;20340;-70
2022/09/07 07:59:47;;;;;;;15.23;11.13;;;;;;;;;;5010407;28;20409;-72
2022/09/07 08:02:14;;;;;;;15.00;12.43;;;;;;;;;;5009802;28;20183;-71
2022/09/07 08:04:39;;;;;;;12.38;11.13;;;;;;;;;;5010211;28;20910;-71
2022/09/07 08:07:04;;;;;;;11.48;9.75;;;;;;;;;;5010965;28;20210;-71
2022/09/07 08:09:29;;;;;;;11.68;10.35;;;;;;;;;;5010366;28;20225;-71
2022/09/07 08:11:55;;;;;;;12.00;10.75;;;;;;;;;;5004762;28;20262;-70
2022/09/07 08:14:20;;;;;;;13.35;11.35;;;;;;;;;;5010444;28;20178;-71
2022/09/07 08:16:46;;;;;;;13.13;11.50;;;;;;;;;;5009668;28;20182;-71
2022/09/07 08:19:11;;;;;;;11.90;10.55;;;;;;;;;;5010611;28;20675;-70
2022/09/07 08:21:36;;;;;;;15.20;12.13;;;;;;;;;;5010421;28;20217;-71
2022/09/07 08:24:02;;;;;;;11.30;10.17;;;;;;;;;;5010712;28;20214;-70
2022/09/07 08:26:27;;;;;;;12.23;10.98;;;;;;;;;;5008889;28;20413;-70
2022/09/07 08:28:53;;;;;;;12.05;10.85;;;;;;;;;;5010020;28;20218;-71
2022/09/07 08:31:19;;;;;;;11.73;10.52;;;;;;;;;;5010464;28;20641;-70
2022/09/07 08:33:44;;;;;;;12.77;11.45;;;;;;;;;;5009990;28;20253;-70
2022/09/07 08:36:10;;;;;;;13.30;11.70;;;;;;;;;;5009611;28;20557;-70
2022/09/07 08:38:36;;;;;;;14.80;13.23;;;;;;;;;;5010377;28;20301;-70
2022/09/07 08:41:14;;;;;;;13.63;12.27;;;;;;;;;;5009637;28;20234;-71
2022/09/07 08:43:45;;;;;;;13.40;12.00;;;;;;;;;;5009699;28;20182;-71
2022/09/07 08:46:22;;;;;;;14.82;11.82;;;;;;;;;;5010553;28;20660;-70
2022/09/07 08:48:48;;;;;;;13.40;12.10;;;;;;;;;;5008604;28;20214;-70
2022/09/07 08:51:18;;;;;;;12.73;11.43;;;;;;;;;;5003056;28;20623;-71
2022/09/07 08:53:45;;;;;;;11.00;9.90;;;;;;;;;;4994826;28;20610;-70
2022/09/07 08:56:21;;;;;;;11.45;10.23;;;;;;;;;;5010103;28;20172;-70
2022/09/07 08:58:52;;;;;;;11.77;10.60;;;;;;;;;;5003264;28;20199;-70
2022/09/07 09:01:32;;;;;;;11.80;10.60;;;;;;;;;;5007361;28;20286;-70
2022/09/07 09:03:57;;;;;;;11.63;10.38;;;;;;;;;;5012659;28;20181;-71
2022/09/07 09:06:22;;;;;;;10.70;9.60;;;;;;;;;;5014221;28;20705;-70
2022/09/07 09:08:48;;;;;;;10.07;9.10;;;;;;;;;;5014351;28;20210;-71
2022/09/07 09:11:31;;;;;;;10.48;9.48;;;;;;;;;;5014057;28;20748;-70
2022/09/07 09:14:05;;;;;;;10.73;9.73;;;;;;;;;;5013300;28;20679;-71
2022/09/07 09:16:41;;;;;;;10.20;9.20;;;;;;;;;;5014141;28;20193;-71
2022/09/07 09:19:21;;;;;;;9.68;8.77;;;;;;;;;;5009205;28;20195;-71
2022/09/07 09:21:46;;;;;;;8.77;7.90;;;;;;;;;;5000536;28;20607;-70
2022/09/07 09:24:16;;;;;;;9.32;7.40;;;;;;;;;;5006042;28;20218;-70
2022/09/07 09:26:43;;;;;;;9.48;8.57;;;;;;;;;;5011112;28;20175;-70
2022/09/07 09:29:14;;;;;;;8.27;7.38;;;;;;;;;;5010908;28;20179;-70
2022/09/07 09:31:39;;;;;;;12.68;7.78;;;;;;;;;;5012748;28;20211;-71
2022/09/07 09:34:05;;;;;;;8.23;7.40;;;;;;;;;;5012600;28;20640;-70
2022/09/07 09:36:33;;;;;;;8.40;7.43;;;;;;;;;;5011471;28;20397;-71
2022/09/07 09:38:58;;;;;;;9.00;8.10;;;;;;;;;;5010998;28;20238;-71
2022/09/07 09:41:24;;;;;;;11.45;7.68;;;;;;;;;;5013609;28;20203;-71
2022/09/07 09:43:53;;;;;;;9.65;8.50;;;;;;;;;;5013513;28;20543;-70
2022/09/07 09:46:30;;;;;;;8.68;7.80;;;;;;;;;;5012628;28;20175;-69
2022/09/07 09:48:59;;;;;;;11.15;6.85;;;;;;;;;;5006824;28;20229;-68
2022/09/07 09:51:25;;;;;;;6.53;5.93;;;;;;;;;;5009192;28;20198;-70
2022/09/07 09:53:53;;;;;;;11.60;7.05;;;;;;;;;;5005539;28;20183;-70
2022/09/07 09:56:19;;;;;;;6.72;6.10;;;;;;;;;;5005558;28;20175;-70
2022/09/07 09:58:46;;;;;;;7.70;5.57;;;;;;;;;;5012697;28;20217;-69
2022/09/07 10:01:21;;;;;;;5.55;3.42;;;;;;;;;;5009387;28;20194;-69
2022/09/07 10:03:46;;;;;;;4.03;1.98;;;;;;;;;;5013599;28;20221;-69
2022/09/07 10:06:14;;;;;;;5.60;2.70;;;;;;;;;;5013409;28;20179;-70
2022/09/07 10:08:50;;;;;;;7.13;2.88;;;;;;;;;;5013323;28;20249;-70
2022/09/07 10:11:15;;;;;;;3.78;2.40;;;;;;;;;;5012927;28;20174;-69
2022/09/07 10:13:52;;;;;;;4.03;2.30;;;;;;;;;;5011108;28;20229;-69
2022/09/07 10:16:17;;;;;;;5.82;2.25;;;;;;;;;;5013027;28;20261;-70
2022/09/07 10:18:56;;;;;;;6.03;2.75;;;;;;;;;;5013307;28;20285;-71
2022/09/07 10:21:31;;;;;;;4.10;2.13;;;;;;;;;;5012705;28;20167;-70
2022/09/07 10:23:59;;;;;;;4.38;2.50;;;;;;;;;;5013109;28;20257;-71
2022/09/07 10:26:27;;;;;;;4.30;3.03;;;;;;;;;;5009183;28;20203;-71
2022/09/07 10:29:12;;;;;;;4.07;2.20;;;;;;;;;;5010025;28;20664;-71
2022/09/07 10:31:44;;;;;;;8.75;2.97;;;;;;;;;;5006036;28;20193;-71
2022/09/07 10:34:21;;;;;;;6.90;2.50;;;;;;;;;;5012678;28;20572;-70
2022/09/07 10:37:00;;;;;;;6.13;2.38;;;;;;;;;;5007211;28;20243;-70
2022/09/07 10:39:29;;;;;;;3.95;2.10;;;;;;;;;;5008324;28;20553;-70
2022/09/07 10:41:58;;;;;;;4.25;2.13;;;;;;;;;;5004922;28;20179;-71
2022/09/07 10:44:37;;;;;;;2.40;1.70;;;;;;;;;;5012743;28;20859;-70
2022/09/07 10:47:16;;;;;;;4.05;2.35;;;;;;;;;;5012623;28;20194;-70
2022/09/07 10:49:45;;;;;;;5.82;2.10;;;;;;;;;;5009380;28;20179;-70
2022/09/07 10:52:21;;;;;;;2.58;2.03;;;;;;;;;;5010210;28;20175;-70
2022/09/07 10:54:52;;;;;;;3.85;2.25;;;;;;;;;;5002958;28;20207;-71
2022/09/07 10:57:37;;;;;;;5.05;2.42;;;;;;;;;;5008568;28;20281;-70
2022/09/07 11:00:08;;;;;;;5.78;3.40;;;;;;;;;;5011420;28;20171;-71
2022/09/07 11:02:33;;;;;;;5.55;2.50;;;;;;;;;;5004408;28;20622;-71
2022/09/07 11:05:24;;;;;;;4.97;3.08;;;;;;;;;;5012066;28;20267;-71
2022/09/07 11:07:49;;;;;;;5.30;2.85;;;;;;;;;;5028043;23;20234;-68
2022/09/07 11:10:17;;;;;;;5.10;3.20;;;;;;;;;;5030527;28;20173;-68
2022/09/07 11:12:43;;;;;;;5.97;2.58;;;;;;;;;;5029061;28;20170;-68
2022/09/07 11:15:11;;;;;;;7.65;2.65;;;;;;;;;;5029455;28;20228;-68
2022/09/07 11:17:42;;;;;;;7.50;2.58;;;;;;;;;;5029333;28;20301;-68
2022/09/07 11:20:23;;;;;;;4.22;2.33;;;;;;;;;;5029161;28;20727;-69
2022/09/07 11:22:56;;;;;;;3.35;1.90;;;;;;;;;;5031095;28;20256;-70
2022/09/07 11:25:28;;;;;;;3.78;1.65;;;;;;;;;;5029810;28;20200;-69
2022/09/07 11:27:56;;;;;;;5.78;2.05;;;;;;;;;;5029563;28;20198;-69
2022/09/07 11:30:33;;;;;;;2.42;1.40;;;;;;;;;;5033262;28;20236;-70
2022/09/07 11:33:24;;;;;;;3.47;1.70;;;;;;;;;;5030606;28;20261;-69
2022/09/07 11:36:01;;;;;;;8.13;2.53;;;;;;;;;;5021180;28;20244;-69
2022/09/07 11:38:26;;;;;;;5.47;1.73;;;;;;;;;;5030303;28;20679;-70
2022/09/07 11:40:58;;;;;;;3.25;1.63;;;;;;;;;;5030221;28;20182;-68
2022/09/07 11:43:31;;;;;;;5.40;2.35;;;;;;;;;;5028663;28;20186;-67
2022/09/07 11:46:06;;;;;;;3.72;1.60;;;;;;;;;;5030099;28;20170;-68
2022/09/07 11:48:33;;;;;;;6.57;1.98;;;;;;;;;;5023001;28;20252;-68
2022/09/07 11:51:01;;;;;;;5.72;1.95;;;;;;;;;;5027295;28;20182;-68
2022/09/07 11:53:27;;;;;;;3.67;1.42;;;;;;;;;;5026922;28;20636;-68
2022/09/07 11:55:55;;;;;;;4.78;1.60;;;;;;;;;;5024175;28;20187;-68
2022/09/07 11:58:20;;;;;;;4.13;1.70;;;;;;;;;;5029658;28;20226;-67
2022/09/07 12:00:51;;;;;;;3.90;1.60;;;;;;;;;;5029704;28;20344;-69
2022/09/07 12:03:35;;;;;;;3.25;1.30;;;;;;;;;;5029115;28;20832;-68
2022/09/07 12:06:00;;;;;;;2.55;1.52;;;;;;;;;;5029279;28;20241;-68
2022/09/07 12:08:34;;;;;;;6.22;1.83;;;;;;;;;;5029760;28;20357;-69
2022/09/07 12:11:15;;;;;;;3.55;1.73;;;;;;;;;;5029704;28;20184;-68
2022/09/07 12:13:40;;;;;;;2.90;1.52;;;;;;;;;;5029661;28;20182;-69
2022/09/07 12:16:24;;;;;;;5.37;2.30;;;;;;;;;;5028238;28;20293;-68
2022/09/07 12:18:58;;;;;;;4.28;2.00;;;;;;;;;;5029449;28;20509;-69
2022/09/07 12:21:33;;;;;;;3.20;1.83;;;;;;;;;;5028358;28;20177;-69
2022/09/07 12:23:58;;;;;;;3.47;1.60;;;;;;;;;;5012151;28;20166;-68
2022/09/07 12:26:32;;;;;;;3.58;1.48;;;;;;;;;;5011990;28;20205;-69
2022/09/07 12:28:57;;;;;;;3.67;1.80;;;;;;;;;;5029528;28;20264;-69
2022/09/07 12:31:40;;;;;;;4.47;1.48;;;;;;;;;;5025929;28;20554;-69
2022/09/07 12:34:24;;;;;;;3.42;1.55;;;;;;;;;;5006013;28;20536;-69
2022/09/07 12:36:49;;;;;;;2.72;1.63;;;;;;;;;;5029304;28;20175;-69
2022/09/07 12:39:28;;;;;;;1.83;1.27;;;;;;;;;;5032924;28;20545;-69
2022/09/07 12:42:05;;;;;;;3.25;1.50;;;;;;;;;;5028121;28;20395;-69
2022/09/07 12:44:34;;;;;;;5.03;1.20;;;;;;;;;;5032548;28;20177;-69
2022/09/07 12:47:00;;;;;;;2.72;1.60;;;;;;;;;;5033332;28;20175;-69
2022/09/07 12:49:26;;;;;;;4.28;1.73;;;;;;;;;;5010627;28;20174;-69
2022/09/07 12:52:03;;;;;;;2.60;1.50;;;;;;;;;;5025653;28;20182;-70
2022/09/07 12:54:46;;;;;;;4.43;1.73;;;;;;;;;;5029942;28;20717;-69
2022/09/07 12:57:16;;;;;;;3.30;1.75;;;;;;;;;;5032733;28;20218;-69
2022/09/07 12:59:49;;;;;;;4.22;1.27;;;;;;;;;;5031303;28;20198;-69
2022/09/07 13:02:20;;;;;;;2.70;1.20;;;;;;;;;;5030747;28;20253;-69
2022/09/07 13:05:02;;;;;;;2.85;1.25;;;;;;;;;;5030604;28;20174;-69
2022/09/07 13:07:30;;;;;;;4.65;1.30;;;;;;;;;;5031867;28;20217;-67
2022/09/07 13:09:57;;;;;;;2.75;1.38;;;;;;;;;;5031999;28;20185;-68
2022/09/07 13:12:25;;;;;;;4.03;1.63;;;;;;;;;;5032167;28;20178;-68
2022/09/07 13:14:51;;;;;;;3.20;1.23;;;;;;;;;;5032491;28;20589;-69
2022/09/07 13:17:32;;;;;;;2.55;1.40;;;;;;;;;;5031475;28;20679;-69
2022/09/07 13:19:57;;;;;;;3.78;1.20;;;;;;;;;;5031356;28;20654;-69
2022/09/07 13:22:28;;;;;;;1.97;0.90;;;;;;;;;;5032485;28;20184;-69
2022/09/07 13:24:55;;;;;;;4.97;1.45;;;;;;;;;;5029978;28;20281;-68
2022/09/07 13:27:23;;;;;;;2.95;1.15;;;;;;;;;;5032396;28;20606;-69
2022/09/07 13:30:09;;;;;;;1.67;0.77;;;;;;;;;;5031914;28;20182;-69
2022/09/07 13:32:34;;;;;;;3.35;1.00;;;;;;;;;;5020987;28;20675;-69
2022/09/07 13:34:59;;;;;;;4.37;1.20;;;;;;;;;;5032237;28;20178;-69
2022/09/07 13:37:25;;;;;;;2.55;1.10;;;;;;;;;;5032455;28;20214;-69
2022/09/07 13:39:53;;;;;;;3.78;1.30;;;;;;;;;;5030993;28;20236;-68
2022/09/07 13:42:23;;;;;;;2.20;1.45;;;;;;;;;;5031627;28;20433;-69
2022/09/07 13:44:55;;;;;;;2.85;1.20;;;;;;;;;;5031874;28;20244;-69
2022/09/07 13:47:24;;;;;;;3.38;1.00;;;;;;;;;;5032322;28;20559;-69
2022/09/07 13:49:52;;;;;;;3.13;1.10;;;;;;;;;;5029406;28;20186;-68
2022/09/07 13:52:21;;;;;;;2.25;0.98;;;;;;;;;;5023316;28;20176;-69
2022/09/07 13:54:46;;;;;;;3.00;0.80;;;;;;;;;;5025446;28;20193;-68
2022/09/07 13:57:20;;;;;;;0.90;0.57;;;;;;;;;;5028973;28;20205;-68
2022/09/07 13:59:49;;;;;;;1.73;0.80;;;;;;;;;;5014813;28;20427;-69
2022/09/07 14:02:20;;;;;;;2.85;1.05;;;;;;;;;;5022277;28;20167;-69
2022/09/07 14:04:47;;;;;;;2.53;0.88;;;;;;;;;;5024564;28;20171;-69
2022/09/07 14:07:13;;;;;;;3.53;1.48;;;;;;;;;;5028249;28;20202;-69
2022/09/07 14:09:39;;;;;;;3.17;1.00;;;;;;;;;;5031963;28;20441;-69
2022/09/07 14:12:14;;;;;;;2.47;1.00;;;;;;;;;;5032322;28;20214;-69
2022/09/07 14:14:39;;;;;;;3.05;0.90;;;;;;;;;;5031144;28;20178;-69
2022/09/07 14:17:06;;;;;;;5.53;1.30;;;;;;;;;;5027523;28;20226;-69
2022/09/07 14:19:40;;;;;;;2.65;1.08;;;;;;;;;;5030337;28;20268;-69
2022/09/07 14:22:08;;;;;;;4.70;1.55;;;;;;;;;;5031681;28;20178;-69
2022/09/07 14:24:35;;;;;;;4.13;1.85;;;;;;;;;;5031536;28;20189;-69
2022/09/07 14:27:00;;;;;;;2.03;0.68;;;;;;;;;;5013613;28;20269;-69
2022/09/07 14:29:29;;;;;;;3.33;1.20;;;;;;;;;;5030619;28;20217;-69
2022/09/07 14:31:54;;;;;;;1.80;0.80;;;;;;;;;;5032085;28;20332;-69
2022/09/07 14:34:22;;;;;;;2.65;0.90;;;;;;;;;;5031697;28;20238;-69
2022/09/07 14:36:47;;;;;;;3.40;1.00;;;;;;;;;;5013615;28;20190;-69
2022/09/07 14:39:13;;;;;;;3.42;1.08;;;;;;;;;;5031374;28;20253;-70
2022/09/07 14:41:40;;;;;;;4.40;0.93;;;;;;;;;;5030162;28;20501;-69
2022/09/07 14:44:11;;;;;;;2.45;0.70;;;;;;;;;;5010319;28;20182;-69
2022/09/07 14:46:37;;;;;;;2.03;0.80;;;;;;;;;;5031112;28;20174;-69
2022/09/07 14:49:17;;;;;;;3.03;0.73;;;;;;;;;;5030606;28;20687;-69